logo dgac
Lunes 03 de Agosto del 2020
Buscar por aerodromo o helipuerto
Ingrese nombre de aeródromo, localidad o designador OACI:
METAR del 03-08-2020 a las 17:00 UTC
Para mayor información visite www.meteochile.cl
METAR SCIE 031700Z 36008KT 310V030 9999 BKN030 13/11 Q1021
Viento: dirección 360 grados, velocidad 8 nudos
Viento con dirección variable entre 310 y 030 grados
Visibilidad: 10 km o más
Nubes: Nublado a 3000 pies sobre el nivel del aeródromo
Temperatura: 13 °C
Rocío: 11 °C
Humedad_relativa: 88%
Presión: 1021 hPa
METAR del 03-08-2020 a las 17:00 UTC
Para mayor información visite www.meteochile.cl
METAR SCIE 031700Z 36008KT 310V030 9999 BKN030 13/11 Q1021
Viento: dirección 360 grados, velocidad 8 nudos
Viento con dirección variable entre 310 y 030 grados
Visibilidad: 10 km o más
Nubes: Nublado a 3000 pies sobre el nivel del aeródromo
Temperatura: 13 °C
Rocío: 11 °C
Humedad_relativa: 88%
Presión: 1021 hPa
METAR del 03-08-2020 a las 17:00 UTC
Para mayor información visite www.meteochile.cl
METAR SCIE 031700Z 36008KT 310V030 9999 BKN030 13/11 Q1021
Viento: dirección 360 grados, velocidad 8 nudos
Viento con dirección variable entre 310 y 030 grados
Visibilidad: 10 km o más
Nubes: Nublado a 3000 pies sobre el nivel del aeródromo
Temperatura: 13 °C
Rocío: 11 °C
Humedad_relativa: 88%
Presión: 1021 hPa
METAR del 03-08-2020 a las 16:00 UTC
Para mayor información visite www.meteochile.cl
METAR SCIE 031600Z NIL
Nan: NIL
METAR del 03-08-2020 a las 16:00 UTC
Para mayor información visite www.meteochile.cl
METAR SCIE 031600Z NIL
Nan: NIL
METAR del 03-08-2020 a las 15:00 UTC
Para mayor información visite www.meteochile.cl
METAR SCIE 031500Z 03010KT 9999 BKN010 12/10 Q1021
Viento: dirección 030 grados, velocidad 10 nudos
Visibilidad: 10 km o más
Nubes: Nublado a 1000 pies sobre el nivel del aeródromo
Temperatura: 12 °C
Rocío: 10 °C
Humedad_relativa: 88%
Presión: 1021 hPa
METAR del 03-08-2020 a las 15:00 UTC
Para mayor información visite www.meteochile.cl
METAR SCIE 031500Z 03010KT 9999 BKN010 12/10 Q1021
Viento: dirección 030 grados, velocidad 10 nudos
Visibilidad: 10 km o más
Nubes: Nublado a 1000 pies sobre el nivel del aeródromo
Temperatura: 12 °C
Rocío: 10 °C
Humedad_relativa: 88%
Presión: 1021 hPa
METAR del 03-08-2020 a las 15:00 UTC
Para mayor información visite www.meteochile.cl
METAR SCIE 031500Z 03010KT 9999 BKN010 12/10 Q1021
Viento: dirección 030 grados, velocidad 10 nudos
Visibilidad: 10 km o más
Nubes: Nublado a 1000 pies sobre el nivel del aeródromo
Temperatura: 12 °C
Rocío: 10 °C
Humedad_relativa: 88%
Presión: 1021 hPa
METAR del 03-08-2020 a las 15:00 UTC
Para mayor información visite www.meteochile.cl
METAR SCIE 031500Z 03010KT 9999 BKN010 12/10 Q1021
Viento: dirección 030 grados, velocidad 10 nudos
Visibilidad: 10 km o más
Nubes: Nublado a 1000 pies sobre el nivel del aeródromo
Temperatura: 12 °C
Rocío: 10 °C
Humedad_relativa: 88%
Presión: 1021 hPa
METAR del 03-08-2020 a las 14:00 UTC
Para mayor información visite www.meteochile.cl
METAR SCIE 031400Z 03008KT 9999 BKN006 11/10 Q1021
Viento: dirección 030 grados, velocidad 8 nudos
Visibilidad: 10 km o más
Nubes: Nublado a 600 pies sobre el nivel del aeródromo
Temperatura: 11 °C
Rocío: 10 °C
Humedad_relativa: 94%
Presión: 1021 hPa